createdAt,value
2022-09-03T00:00:02.507Z,98209.22
2022-09-03T00:02:40.349Z,98205.69
2022-09-03T00:05:23.807Z,98203.38
2022-09-03T00:08:05.995Z,98200.06
2022-09-03T00:10:45.813Z,98207.00
2022-09-03T00:13:19.714Z,98204.06
2022-09-03T00:15:46.283Z,98198.75
2022-09-03T00:18:20.915Z,98202.66
2022-09-03T00:21:08.535Z,98200.47
2022-09-03T00:23:40.456Z,98198.00
2022-09-03T00:26:12.932Z,98191.63
2022-09-03T00:28:47.588Z,98202.72
2022-09-03T00:31:28.973Z,98194.75
2022-09-03T00:34:02.245Z,98192.72
2022-09-03T00:36:42.257Z,98195.56
2022-09-03T00:39:18.472Z,98199.38
2022-09-03T00:42:07.994Z,98192.16
2022-09-03T00:44:56.957Z,98200.03
2022-09-03T00:47:58.800Z,98196.59
2022-09-03T00:50:34.047Z,98199.34
2022-09-03T00:53:21.340Z,98205.44
2022-09-03T00:55:58.711Z,98192.09
2022-09-03T00:58:55.554Z,98202.97
2022-09-03T01:01:30.214Z,98198.50
2022-09-03T01:04:06.414Z,98198.66
2022-09-03T01:06:45.846Z,98197.44
2022-09-03T01:09:27.367Z,98195.94
2022-09-03T01:12:13.502Z,98200.09
2022-09-03T01:14:55.243Z,98192.81
2022-09-03T01:17:59.602Z,98182.94
2022-09-03T01:20:41.124Z,98193.56
2022-09-03T01:23:26.138Z,98190.31
2022-09-03T01:26:07.345Z,98193.28
2022-09-03T01:28:59.217Z,98190.09
2022-09-03T01:31:40.571Z,98189.41
2022-09-03T01:34:44.956Z,98186.53
2022-09-03T01:37:47.126Z,98186.06
2022-09-03T01:40:47.876Z,98181.94
2022-09-03T01:43:23.174Z,98186.28
2022-09-03T01:46:01.814Z,98191.06
2022-09-03T01:49:01.746Z,98185.88
2022-09-03T01:51:30.648Z,98186.72
2022-09-03T01:54:10.948Z,98187.88
2022-09-03T01:57:06.619Z,98187.47
2022-09-03T01:59:44.225Z,98186.25
2022-09-03T02:02:26.853Z,98186.69
2022-09-03T02:05:02.348Z,98185.22
2022-09-03T02:07:35.042Z,98182.03
2022-09-03T02:10:03.523Z,98177.25
2022-09-03T02:12:33.603Z,98179.06
2022-09-03T02:15:03.885Z,98179.28
2022-09-03T02:17:34.899Z,98175.38
2022-09-03T02:20:08.330Z,98176.38
2022-09-03T02:22:35.137Z,98173.19
2022-09-03T02:25:02.116Z,98174.94
2022-09-03T02:27:28.700Z,98180.94
2022-09-03T02:29:55.279Z,98172.88
2022-09-03T02:32:21.750Z,98179.41
2022-09-03T02:34:48.254Z,98183.50
2022-09-03T02:37:16.147Z,98185.78
2022-09-03T02:39:42.710Z,98180.50
2022-09-03T02:42:12.232Z,98185.13
2022-09-03T02:44:44.884Z,98178.88
2022-09-03T02:47:11.941Z,98183.03
2022-09-03T02:49:38.378Z,98184.72
2022-09-03T02:52:12.211Z,98181.56
2022-09-03T02:54:40.131Z,98179.50
2022-09-03T02:57:09.197Z,98177.41
2022-09-03T02:59:36.339Z,98182.47
2022-09-03T03:02:04.231Z,98175.34
2022-09-03T03:04:32.434Z,98177.69
2022-09-03T03:06:59.027Z,98167.06
2022-09-03T03:09:25.525Z,98166.84
2022-09-03T03:11:55.254Z,98172.88
2022-09-03T03:14:22.677Z,98173.78
2022-09-03T03:16:50.168Z,98176.00
2022-09-03T03:19:17.318Z,98175.31
2022-09-03T03:21:43.789Z,98168.88
2022-09-03T03:24:10.494Z,98173.44
2022-09-03T03:26:37.143Z,98166.69
2022-09-03T03:29:07.536Z,98166.34
2022-09-03T03:31:34.439Z,98158.38
2022-09-03T03:34:03.114Z,98160.59
2022-09-03T03:36:33.821Z,98159.75
2022-09-03T03:39:01.520Z,98164.25
2022-09-03T03:41:33.124Z,98160.31
2022-09-03T03:44:02.538Z,98161.81
2022-09-03T03:46:35.121Z,98164.63
2022-09-03T03:49:01.910Z,98160.53
2022-09-03T03:51:29.032Z,98158.09
2022-09-03T03:53:57.039Z,98161.13
2022-09-03T03:56:25.163Z,98161.81
2022-09-03T03:58:52.052Z,98156.94
2022-09-03T04:01:21.671Z,98145.16
2022-09-03T04:03:48.456Z,98145.84
2022-09-03T04:06:17.368Z,98150.09
2022-09-03T04:08:45.634Z,98147.56
2022-09-03T04:11:19.007Z,98154.88
2022-09-03T04:13:46.822Z,98153.81
2022-09-03T04:16:19.199Z,98140.69
2022-09-03T04:18:46.599Z,98137.56
2022-09-03T04:21:31.649Z,98139.06
2022-09-03T04:23:58.570Z,98138.19
2022-09-03T04:26:31.460Z,98132.91
2022-09-03T04:28:59.297Z,98136.78
2022-09-03T04:31:25.725Z,98132.94
2022-09-03T04:33:52.309Z,98132.28
2022-09-03T04:36:21.078Z,98128.31
2022-09-03T04:38:49.830Z,98134.47
2022-09-03T04:41:25.126Z,98134.16
2022-09-03T04:43:52.945Z,98134.31
2022-09-03T04:46:21.036Z,98133.50
2022-09-03T04:48:51.185Z,98140.88
2022-09-03T04:51:21.358Z,98136.91
2022-09-03T04:53:53.247Z,98147.09
2022-09-03T04:56:25.744Z,98137.63
2022-09-03T04:58:57.987Z,98138.97
2022-09-03T05:01:27.117Z,98139.50
2022-09-03T05:03:55.650Z,98141.34
2022-09-03T05:06:22.102Z,98141.91
2022-09-03T05:08:50.303Z,98152.75
2022-09-03T05:11:17.879Z,98147.78
2022-09-03T05:13:48.981Z,98157.28
2022-09-03T05:16:16.045Z,98152.81
2022-09-03T05:18:42.578Z,98151.00
2022-09-03T05:21:15.159Z,98151.56
2022-09-03T05:23:46.910Z,98149.72
2022-09-03T05:26:16.244Z,98153.75
2022-09-03T05:28:44.095Z,98150.44
2022-09-03T05:31:21.062Z,98151.25
2022-09-03T05:33:50.151Z,98153.09
2022-09-03T05:36:19.507Z,98149.09
2022-09-03T05:38:47.512Z,98159.63
2022-09-03T05:41:15.859Z,98155.13
2022-09-03T05:43:43.179Z,98145.13
2022-09-03T05:46:17.348Z,98143.59
2022-09-03T05:48:44.344Z,98145.25
2022-09-03T05:51:16.315Z,98154.44
2022-09-03T05:53:44.713Z,98158.56
2022-09-03T05:56:19.602Z,98168.47
2022-09-03T05:58:48.700Z,98174.03
2022-09-03T06:01:17.478Z,98173.53
2022-09-03T06:03:45.733Z,98170.88
2022-09-03T06:06:16.356Z,98172.81
2022-09-03T06:08:44.882Z,98163.56
2022-09-03T06:11:11.836Z,98163.81
2022-09-03T06:13:38.346Z,98168.91
2022-09-03T06:16:07.225Z,98164.00
2022-09-03T06:18:33.770Z,98171.44
2022-09-03T06:21:05.809Z,98174.09
2022-09-03T06:23:34.130Z,98175.75
2022-09-03T06:26:13.989Z,98179.34
2022-09-03T06:28:43.649Z,98169.13
2022-09-03T06:31:15.326Z,98168.44
2022-09-03T06:33:44.902Z,98166.47
2022-09-03T06:36:13.490Z,98177.88
2022-09-03T06:38:41.033Z,98176.59
2022-09-03T06:41:10.312Z,98183.66
2022-09-03T06:43:39.743Z,98173.84
2022-09-03T06:46:11.859Z,98176.22
2022-09-03T06:48:40.709Z,98176.09
2022-09-03T06:51:09.954Z,98177.81
2022-09-03T06:53:42.451Z,98170.13
2022-09-03T06:56:11.178Z,98174.53
2022-09-03T06:58:43.607Z,98179.03
2022-09-03T07:01:13.154Z,98181.59
2022-09-03T07:03:41.732Z,98177.88
2022-09-03T07:06:11.272Z,98185.25
2022-09-03T07:08:38.024Z,98179.88
2022-09-03T07:11:10.636Z,98175.84
2022-09-03T07:13:45.031Z,98168.72
2022-09-03T07:16:13.919Z,98181.44
2022-09-03T07:18:43.616Z,98185.28
2022-09-03T07:21:15.461Z,98176.75
2022-09-03T07:23:42.387Z,98180.59
2022-09-03T07:26:18.168Z,98176.59
2022-09-03T07:28:49.122Z,98174.03
2022-09-03T07:31:31.857Z,98178.66
2022-09-03T07:34:00.260Z,98182.63
2022-09-03T07:36:28.671Z,98182.88
2022-09-03T07:39:01.991Z,98179.75
2022-09-03T07:41:29.318Z,98186.56
2022-09-03T07:43:56.949Z,98191.56
2022-09-03T07:46:27.421Z,98195.47
2022-09-03T07:48:55.950Z,98196.63
2022-09-03T07:51:26.470Z,98189.22
2022-09-03T07:53:56.079Z,98196.47
2022-09-03T07:56:22.745Z,98188.06
2022-09-03T07:58:49.233Z,98190.38
2022-09-03T08:01:21.561Z,98202.91
2022-09-03T08:03:50.767Z,98206.50
2022-09-03T08:06:20.202Z,98211.72
2022-09-03T08:08:46.881Z,98209.13
2022-09-03T08:11:21.933Z,98210.53
2022-09-03T08:14:10.368Z,98206.31
2022-09-03T08:16:39.798Z,98209.72
2022-09-03T08:19:07.484Z,98208.50
2022-09-03T08:21:34.010Z,98210.41
2022-09-03T08:24:03.586Z,98210.22
2022-09-03T08:26:35.442Z,98213.00
2022-09-03T08:29:04.592Z,98211.09
2022-09-03T08:31:32.428Z,98215.72
2022-09-03T08:34:01.916Z,98221.81
2022-09-03T08:36:30.521Z,98218.31
2022-09-03T08:38:59.429Z,98220.22
2022-09-03T08:42:00.514Z,98224.50
2022-09-03T08:44:48.436Z,98217.84
2022-09-03T08:47:21.634Z,98216.44
2022-09-03T08:50:04.859Z,98212.16
2022-09-03T08:52:48.872Z,98214.75
2022-09-03T08:55:29.747Z,98216.91
2022-09-03T08:58:10.905Z,98219.50
2022-09-03T09:00:49.691Z,98221.41
2022-09-03T09:03:42.398Z,98218.69
2022-09-03T09:06:46.412Z,98227.13
2022-09-03T09:09:15.944Z,98222.53
2022-09-03T09:12:16.380Z,98222.94
2022-09-03T09:15:02.689Z,98235.38
2022-09-03T09:18:01.187Z,98227.94
2022-09-03T09:21:22.625Z,98234.91
2022-09-03T09:23:51.487Z,98237.28
2022-09-03T09:26:21.551Z,98233.50
2022-09-03T09:28:55.956Z,98228.25
2022-09-03T09:31:22.577Z,98229.34
2022-09-03T09:33:49.258Z,98228.22
2022-09-03T09:36:19.320Z,98234.31
2022-09-03T09:38:47.340Z,98233.75
2022-09-03T09:41:20.091Z,98236.44
2022-09-03T09:43:48.173Z,98227.31
2022-09-03T09:46:16.542Z,98218.34
2022-09-03T09:48:52.254Z,98217.91
2022-09-03T09:51:18.650Z,98226.66
2022-09-03T09:53:45.254Z,98240.41
2022-09-03T09:56:25.529Z,98244.88
2022-09-03T09:59:09.885Z,98244.31
2022-09-03T10:01:39.230Z,98246.81
2022-09-03T10:04:33.395Z,98235.75
2022-09-03T10:07:26.842Z,98238.44
2022-09-03T10:10:02.173Z,98233.09
2022-09-03T10:12:36.133Z,98228.13
2022-09-03T10:15:17.965Z,98229.34
2022-09-03T10:18:08.547Z,98230.97
2022-09-03T10:20:54.677Z,98232.34
2022-09-03T10:23:25.643Z,98244.03
2022-09-03T10:26:16.861Z,98239.25
2022-09-03T10:28:50.537Z,98250.59
2022-09-03T10:31:50.258Z,98249.25
2022-09-03T10:34:31.120Z,98254.94
2022-09-03T10:37:25.968Z,98236.75
2022-09-03T10:40:10.598Z,98229.56
2022-09-03T10:42:51.511Z,98229.03
2022-09-03T10:45:37.626Z,98225.78
2022-09-03T10:48:33.490Z,98220.47
2022-09-03T10:51:20.510Z,98224.94
2022-09-03T10:54:28.972Z,98229.06
2022-09-03T10:57:29.859Z,98227.06
2022-09-03T11:00:13.015Z,98220.66
2022-09-03T11:03:07.523Z,98224.88
2022-09-03T11:05:55.249Z,98229.22
2022-09-03T11:08:24.751Z,98228.16
2022-09-03T11:10:58.728Z,98223.44
2022-09-03T11:13:31.041Z,98227.69
2022-09-03T11:16:06.476Z,98226.41
2022-09-03T11:18:48.904Z,98228.69
2022-09-03T11:21:20.859Z,98231.84
2022-09-03T11:24:07.508Z,98218.66
2022-09-03T11:26:35.269Z,98223.19
2022-09-03T11:29:12.706Z,98218.16
2022-09-03T11:32:07.821Z,98222.91
2022-09-03T11:34:47.479Z,98219.84
2022-09-03T11:37:31.040Z,98216.31
2022-09-03T11:40:18.274Z,98217.63
2022-09-03T11:42:45.893Z,98215.03
2022-09-03T11:45:27.493Z,98217.66
2022-09-03T11:47:54.858Z,98214.72
2022-09-03T11:50:30.991Z,98219.63
2022-09-03T11:53:16.298Z,98212.13
2022-09-03T11:56:12.999Z,98204.94
2022-09-03T11:58:42.901Z,98212.00
2022-09-03T12:01:12.256Z,98209.69
2022-09-03T12:03:51.645Z,98206.63
2022-09-03T12:06:20.770Z,98216.31
2022-09-03T12:09:06.785Z,98214.25
2022-09-03T12:11:57.515Z,98212.66
2022-09-03T12:14:51.011Z,98207.78
2022-09-03T12:17:28.901Z,98211.34
2022-09-03T12:19:57.607Z,98215.16
2022-09-03T12:22:31.319Z,98206.38
2022-09-03T12:25:11.951Z,98194.78
2022-09-03T12:27:38.811Z,98192.84
2022-09-03T12:30:13.857Z,98199.66
2022-09-03T12:32:41.148Z,98188.97
2022-09-03T12:35:58.269Z,98184.19
2022-09-03T12:38:06.970Z,98186.97
2022-09-03T12:40:35.494Z,98185.72
2022-09-03T12:43:49.863Z,98188.88
2022-09-03T12:46:15.995Z,98186.72
2022-09-03T12:51:55.125Z,98179.03
2022-09-03T12:54:23.637Z,98172.59
2022-09-03T12:57:09.171Z,98173.84
2022-09-03T12:59:39.399Z,98175.34
2022-09-03T13:02:16.790Z,98171.25
2022-09-03T13:04:44.728Z,98170.19
2022-09-03T13:07:27.229Z,98169.03
2022-09-03T13:10:04.229Z,98160.69
2022-09-03T13:12:34.683Z,98161.94
2022-09-03T13:15:19.820Z,98167.38
2022-09-03T13:18:04.969Z,98165.16
2022-09-03T13:20:44.994Z,98159.84
2022-09-03T13:23:26.889Z,98160.38
2022-09-03T13:26:47.626Z,98167.56
2022-09-03T13:29:30.495Z,98162.88
2022-09-03T13:32:06.271Z,98160.22
2022-09-03T13:34:37.748Z,98165.22
2022-09-03T13:37:06.972Z,98166.06
2022-09-03T13:39:41.887Z,98174.69
2022-09-03T13:42:23.826Z,98184.56
2022-09-03T13:44:55.309Z,98176.25
2022-09-03T13:48:03.326Z,98170.69
2022-09-03T13:50:59.582Z,98175.81
2022-09-03T13:53:52.604Z,98196.97
2022-09-03T13:56:43.627Z,98193.81
2022-09-03T13:59:27.401Z,98198.34
2022-09-03T14:02:20.827Z,98189.00
2022-09-03T14:04:58.329Z,98181.09
2022-09-03T14:07:35.440Z,98198.19
2022-09-03T14:10:45.851Z,98181.09
2022-09-03T14:13:46.409Z,98175.31
2022-09-03T14:16:25.908Z,98173.78
2022-09-03T14:19:30.738Z,98179.34
2022-09-03T14:22:01.599Z,98176.13
2022-09-03T14:24:52.923Z,98177.34
2022-09-03T14:27:26.057Z,98180.56
2022-09-03T14:29:59.705Z,98172.25
2022-09-03T14:32:56.335Z,98171.44
2022-09-03T14:35:52.952Z,98166.16
2022-09-03T14:38:44.042Z,98164.91
2022-09-03T14:41:13.229Z,98166.53
2022-09-03T14:44:17.256Z,98161.94
2022-09-03T14:47:03.903Z,98163.63
2022-09-03T14:49:53.339Z,98161.97
2022-09-03T14:52:38.367Z,98160.34
2022-09-03T14:55:25.634Z,98158.63
2022-09-03T14:57:58.155Z,98166.66
2022-09-03T15:00:43.274Z,98162.69
2022-09-03T15:03:39.672Z,98168.66
2022-09-03T15:06:30.683Z,98171.28
2022-09-03T15:09:16.419Z,98175.06
2022-09-03T15:11:50.640Z,98174.25
2022-09-03T15:14:29.756Z,98181.00
2022-09-03T15:17:04.816Z,98168.56
2022-09-03T15:20:24.278Z,98177.09
2022-09-03T15:23:15.130Z,98166.41
2022-09-03T15:26:19.297Z,98163.78
2022-09-03T15:29:00.254Z,98165.38
2022-09-03T15:31:51.523Z,98167.88
2022-09-03T15:34:27.728Z,98166.00
2022-09-03T15:36:57.457Z,98165.91
2022-09-03T15:39:40.200Z,98166.06
2022-09-03T15:42:11.116Z,98156.91
2022-09-03T15:44:48.222Z,98168.81
2022-09-03T15:47:44.783Z,98165.50
2022-09-03T15:50:40.160Z,98170.03
2022-09-03T15:53:35.658Z,98164.94
2022-09-03T15:56:18.723Z,98170.69
2022-09-03T15:59:18.263Z,98180.25
2022-09-03T16:01:44.680Z,98181.72
2022-09-03T16:04:17.331Z,98176.78
2022-09-03T16:06:58.969Z,98182.13
2022-09-03T16:10:24.370Z,98191.50
2022-09-03T16:12:57.488Z,98191.66
2022-09-03T16:15:28.409Z,98189.88
2022-09-03T16:18:11.018Z,98183.25
2022-09-03T16:20:49.769Z,98185.31
2022-09-03T16:23:28.432Z,98180.38
2022-09-03T16:26:36.365Z,98189.25
2022-09-03T16:29:14.045Z,98187.22
2022-09-03T16:31:46.578Z,98188.69
2022-09-03T16:34:23.466Z,98180.78
2022-09-03T16:37:02.538Z,98182.81
2022-09-03T16:39:52.911Z,98188.41
2022-09-03T16:43:07.329Z,98183.84
2022-09-03T16:45:40.028Z,98184.47
2022-09-03T16:48:21.411Z,98183.25
2022-09-03T16:50:58.296Z,98188.16
2022-09-03T16:54:07.452Z,98187.97
2022-09-03T16:56:50.982Z,98189.31
2022-09-03T16:59:17.453Z,98185.16
2022-09-03T17:02:00.885Z,98192.22
2022-09-03T17:04:55.208Z,98202.50
2022-09-03T17:07:54.220Z,98193.34
2022-09-03T17:10:51.067Z,98199.56
2022-09-03T17:13:42.055Z,98202.50
2022-09-03T17:16:15.800Z,98198.72
2022-09-03T17:19:08.854Z,98195.41
2022-09-03T17:21:40.427Z,98199.78
2022-09-03T17:24:52.793Z,98190.41
2022-09-03T17:27:40.712Z,98201.47
2022-09-03T17:30:19.890Z,98202.75
2022-09-03T17:32:57.630Z,98204.03
2022-09-03T17:35:52.751Z,98209.16
2022-09-03T17:38:43.159Z,98195.56
2022-09-03T17:41:18.572Z,98195.56
2022-09-03T17:44:01.461Z,98201.22
2022-09-03T17:46:33.960Z,98199.16
2022-09-03T17:49:02.664Z,98203.00
2022-09-03T17:51:35.932Z,98205.16
2022-09-03T17:54:42.996Z,98208.59
2022-09-03T17:57:21.725Z,98206.59
2022-09-03T18:00:23.328Z,98209.56
2022-09-03T18:02:56.226Z,98213.25
2022-09-03T18:05:27.510Z,98219.34
2022-09-03T18:08:39.017Z,98213.59
2022-09-03T18:11:19.228Z,98209.28
2022-09-03T18:14:16.999Z,98216.88
2022-09-03T18:17:04.441Z,98216.72
2022-09-03T18:20:17.919Z,98226.13
2022-09-03T18:23:20.712Z,98227.38
2022-09-03T18:26:12.947Z,98224.94
2022-09-03T18:29:20.913Z,98229.75
2022-09-03T18:32:05.953Z,98230.59
2022-09-03T18:34:53.422Z,98231.00
2022-09-03T18:37:44.050Z,98237.91
2022-09-03T18:40:38.323Z,98242.88
2022-09-03T18:43:58.992Z,98243.31
2022-09-03T18:50:44.646Z,98259.53
2022-09-03T18:53:39.972Z,98256.44
2022-09-03T18:56:47.123Z,98254.84
2022-09-03T18:59:46.915Z,98264.03
2022-09-03T19:02:59.746Z,98260.09
2022-09-03T19:06:00.655Z,98263.94
2022-09-03T19:09:02.912Z,98265.72
2022-09-03T19:11:59.856Z,98267.44
2022-09-03T19:14:58.122Z,98269.34
2022-09-03T19:18:02.948Z,98273.09
2022-09-03T19:20:50.887Z,98288.00
2022-09-03T19:23:35.927Z,98284.03
2022-09-03T19:26:33.990Z,98291.50
2022-09-03T19:29:26.528Z,98302.66
2022-09-03T19:32:22.460Z,98301.38
2022-09-03T19:35:22.176Z,98304.06
2022-09-03T19:38:07.160Z,98306.13
2022-09-03T19:41:26.306Z,98301.63
2022-09-03T19:44:18.729Z,98307.75
2022-09-03T19:47:17.760Z,98301.81
2022-09-03T19:50:21.407Z,98309.78
2022-09-03T19:53:13.333Z,98311.63
2022-09-03T19:56:07.596Z,98315.50
2022-09-03T19:58:57.072Z,98322.28
2022-09-03T20:01:48.508Z,98324.56
2022-09-03T20:04:34.917Z,98325.75
2022-09-03T20:07:23.459Z,98321.00
2022-09-03T20:10:09.830Z,98327.38
2022-09-03T20:12:42.457Z,98321.94
2022-09-03T20:15:09.342Z,98324.03
2022-09-03T20:18:30.731Z,98328.25
2022-09-03T20:21:30.946Z,98331.91
2022-09-03T20:24:15.133Z,98336.06
2022-09-03T20:27:03.330Z,98335.50
2022-09-03T20:29:58.136Z,98336.28
2022-09-03T20:32:42.848Z,98336.06
2022-09-03T20:35:32.797Z,98331.25
2022-09-03T20:38:17.631Z,98349.13
2022-09-03T20:40:54.435Z,98345.16
2022-09-03T20:43:20.864Z,98350.47
2022-09-03T20:46:09.080Z,98349.63
2022-09-03T20:48:57.908Z,98352.00
2022-09-03T20:51:34.441Z,98351.72
2022-09-03T20:54:32.138Z,98353.72
2022-09-03T20:57:18.318Z,98357.72
2022-09-03T20:59:56.826Z,98356.06
2022-09-03T21:03:04.925Z,98356.81
2022-09-03T21:05:38.039Z,98359.13
2022-09-03T21:08:39.874Z,98363.22
2022-09-03T21:11:29.237Z,98369.59
2022-09-03T21:14:31.554Z,98362.19
2022-09-03T21:17:08.712Z,98368.38
2022-09-03T21:20:00.650Z,98364.50
2022-09-03T21:22:54.807Z,98361.03
2022-09-03T21:25:35.175Z,98362.31
2022-09-03T21:28:09.682Z,98362.44
2022-09-03T21:30:40.683Z,98356.28
2022-09-03T21:33:33.693Z,98356.28
2022-09-03T21:36:05.840Z,98361.50
2022-09-03T21:38:36.391Z,98364.72
2022-09-03T21:41:18.719Z,98372.66
2022-09-03T21:44:23.679Z,98382.84
2022-09-03T21:46:54.737Z,98374.19
2022-09-03T21:49:29.348Z,98384.03
2022-09-03T21:52:11.483Z,98382.16
2022-09-03T21:54:38.159Z,98387.25
2022-09-03T21:57:04.602Z,98393.97
2022-09-03T21:59:54.863Z,98391.50
2022-09-03T22:02:29.997Z,98395.34
2022-09-03T22:04:57.365Z,98398.81
2022-09-03T22:07:44.092Z,98399.16
2022-09-03T22:10:31.845Z,98400.38
2022-09-03T22:13:09.284Z,98401.16
2022-09-03T22:15:38.912Z,98398.47
2022-09-03T22:18:28.645Z,98395.97
2022-09-03T22:21:23.228Z,98397.31
2022-09-03T22:24:19.025Z,98401.50
2022-09-03T22:26:53.736Z,98403.69
2022-09-03T22:29:34.769Z,98400.38
2022-09-03T22:32:36.302Z,98397.88
2022-09-03T22:35:17.902Z,98391.97
2022-09-03T22:38:12.716Z,98399.03
2022-09-03T22:40:57.336Z,98404.91
2022-09-03T22:43:38.486Z,98403.06
2022-09-03T22:46:09.577Z,98405.25
2022-09-03T22:48:51.545Z,98402.41
2022-09-03T22:51:21.759Z,98409.97
2022-09-03T22:54:13.208Z,98412.16
2022-09-03T22:56:41.279Z,98413.81
2022-09-03T22:59:12.831Z,98419.00
2022-09-03T23:01:49.264Z,98414.47
2022-09-03T23:04:31.465Z,98417.63
2022-09-03T23:07:05.417Z,98419.81
2022-09-03T23:09:37.897Z,98421.66
2022-09-03T23:12:12.585Z,98422.00
2022-09-03T23:14:48.775Z,98417.84
2022-09-03T23:22:37.193Z,98431.19
2022-09-03T23:25:13.528Z,98435.88
2022-09-03T23:28:14.966Z,98440.91
2022-09-03T23:30:41.673Z,98439.25
2022-09-03T23:33:10.991Z,98450.94
2022-09-03T23:36:03.330Z,98443.56
2022-09-03T23:39:06.581Z,98441.53
2022-09-03T23:41:40.814Z,98430.84
2022-09-03T23:44:31.429Z,98440.38
2022-09-03T23:47:04.199Z,98445.38
2022-09-03T23:49:42.421Z,98446.06
2022-09-03T23:52:32.600Z,98443.03
2022-09-03T23:55:09.445Z,98446.91
2022-09-03T23:57:54.195Z,98442.91
